Time;durP1;ratioP1;P1;durP2;ratioP2;P2;SDS_P1;SDS_P2;PMS_P1;PMS_P2;Temp;Humidity;BMP_temperature;BMP_pressure;BME280_temperature;BME280_humidity;BME280_pressure;Samples;Min_cycle;Max_cycle;Signal;HPM_P1;HPM_P2
2022/06/02 00:00:02;;;;;;;2.60;2.30;;;;;;;;;;5097547;28;20201;-64
2022/06/02 00:02:33;;;;;;;2.97;2.57;;;;;;;;;;5097341;28;20205;-64
2022/06/02 00:05:07;;;;;;;1.97;1.87;;;;;;;;;;5100301;28;20209;-64
2022/06/02 00:07:39;;;;;;;2.67;2.10;;;;;;;;;;5101009;28;20231;-64
2022/06/02 00:10:12;;;;;;;2.20;2.00;;;;;;;;;;5100640;28;20233;-64
2022/06/02 00:12:47;;;;;;;2.40;2.20;;;;;;;;;;5100940;28;20268;-64
2022/06/02 00:15:23;;;;;;;2.23;2.07;;;;;;;;;;5100236;28;20197;-64
2022/06/02 00:17:54;;;;;;;2.00;1.83;;;;;;;;;;5101625;28;20197;-64
2022/06/02 00:20:25;;;;;;;2.70;2.07;;;;;;;;;;5088869;28;20201;-64
2022/06/02 00:22:59;;;;;;;2.60;2.07;;;;;;;;;;5100420;28;20235;-64
2022/06/02 00:25:31;;;;;;;3.13;2.10;;;;;;;;;;5100234;28;20232;-64
2022/06/02 00:28:03;;;;;;;2.63;1.83;;;;;;;;;;5100347;28;20205;-64
2022/06/02 00:30:34;;;;;;;1.93;1.80;;;;;;;;;;5100435;28;20201;-64
2022/06/02 00:33:08;;;;;;;2.50;2.23;;;;;;;;;;5100113;28;20229;-64
2022/06/02 00:35:40;;;;;;;2.33;2.03;;;;;;;;;;5100056;28;20311;-64
2022/06/02 00:38:18;;;;;;;2.13;1.97;;;;;;;;;;5100201;28;20217;-64
2022/06/02 00:40:47;;;;;;;2.17;1.97;;;;;;;;;;5099619;28;20644;-64
2022/06/02 00:43:30;;;;;;;4.13;2.13;;;;;;;;;;5099845;28;20256;-64
2022/06/02 00:46:03;;;;;;;2.40;2.20;;;;;;;;;;5097920;28;20237;-64
2022/06/02 00:48:39;;;;;;;2.20;2.00;;;;;;;;;;5099677;28;20638;-64
2022/06/02 00:51:08;;;;;;;3.43;2.13;;;;;;;;;;5100070;28;20212;-64
2022/06/02 00:53:41;;;;;;;3.17;2.13;;;;;;;;;;5099813;28;20265;-64
2022/06/02 00:59:18;;;;;;;3.27;1.80;;;;;;;;;;5099977;28;20236;-64
2022/06/02 01:01:46;;;;;;;2.97;2.07;;;;;;;;;;5099564;28;20209;-64
2022/06/02 01:04:16;;;;;;;2.10;1.90;;;;;;;;;;5099985;28;20240;-64
2022/06/02 01:07:00;;;;;;;3.50;1.73;;;;;;;;;;5099384;28;20226;-64
2022/06/02 01:09:41;;;;;;;2.30;2.10;;;;;;;;;;5099467;28;20205;-64
2022/06/02 01:12:18;;;;;;;3.40;2.10;;;;;;;;;;5099446;28;20259;-64
2022/06/02 01:14:53;;;;;;;2.10;1.90;;;;;;;;;;5099059;28;20229;-64
2022/06/02 01:17:23;;;;;;;2.53;2.00;;;;;;;;;;5099050;28;20244;-64
2022/06/02 01:20:03;;;;;;;2.37;1.70;;;;;;;;;;5099414;28;20237;-64
2022/06/02 01:22:41;;;;;;;2.20;2.00;;;;;;;;;;5099328;28;20676;-64
2022/06/02 01:25:24;;;;;;;2.93;2.10;;;;;;;;;;5098896;28;20237;-64
2022/06/02 01:28:09;;;;;;;2.90;2.03;;;;;;;;;;5097384;28;20209;-64
2022/06/02 01:30:45;;;;;;;5.53;2.23;;;;;;;;;;5098987;28;20229;-64
2022/06/02 01:33:16;;;;;;;4.07;2.27;;;;;;;;;;5099164;28;20243;-64
2022/06/02 01:35:49;;;;;;;3.63;2.63;;;;;;;;;;5098835;28;20233;-64
2022/06/02 01:38:21;;;;;;;3.87;2.20;;;;;;;;;;5099103;28;20233;-64
2022/06/02 01:40:54;;;;;;;2.67;2.07;;;;;;;;;;5098735;28;20554;-64
2022/06/02 01:43:27;;;;;;;3.40;2.40;;;;;;;;;;5098775;28;20208;-64
2022/06/02 01:46:08;;;;;;;2.17;2.03;;;;;;;;;;5098781;28;20711;-64
2022/06/02 01:48:38;;;;;;;2.87;2.57;;;;;;;;;;5098450;28;20324;-64
2022/06/02 01:51:11;;;;;;;3.10;2.37;;;;;;;;;;5098769;28;20255;-64
2022/06/02 01:53:46;;;;;;;2.27;2.07;;;;;;;;;;5098423;28;20228;-65
2022/06/02 01:56:31;;;;;;;3.47;2.27;;;;;;;;;;5098325;28;20762;-64
2022/06/02 01:59:07;;;;;;;2.37;2.17;;;;;;;;;;5098549;28;20669;-65
2022/06/02 02:01:42;;;;;;;2.53;2.33;;;;;;;;;;5098485;28;20236;-64
2022/06/02 02:04:25;;;;;;;3.23;2.17;;;;;;;;;;5098464;28;20718;-64
2022/06/02 02:06:58;;;;;;;2.40;2.20;;;;;;;;;;5096171;28;20221;-64
2022/06/02 02:09:31;;;;;;;2.67;2.43;;;;;;;;;;5098338;28;20237;-64
2022/06/02 02:12:00;;;;;;;5.33;2.30;;;;;;;;;;5098156;28;20271;-64
2022/06/02 02:14:50;;;;;;;2.40;2.20;;;;;;;;;;5098197;28;20684;-65
2022/06/02 02:17:38;;;;;;;2.40;2.03;;;;;;;;;;5091952;28;20260;-64
2022/06/02 02:20:12;;;;;;;3.07;2.20;;;;;;;;;;5098573;28;20213;-64
2022/06/02 02:22:42;;;;;;;3.53;1.97;;;;;;;;;;5098108;28;20572;-64
2022/06/02 02:25:14;;;;;;;2.87;2.30;;;;;;;;;;5097922;28;20240;-64
2022/06/02 02:28:04;;;;;;;3.10;2.80;;;;;;;;;;5097740;28;20236;-64
2022/06/02 02:30:39;;;;;;;4.07;2.90;;;;;;;;;;5098344;28;20216;-64
2022/06/02 02:33:19;;;;;;;5.53;2.90;;;;;;;;;;5098147;28;20675;-64
2022/06/02 02:35:52;;;;;;;4.50;4.00;;;;;;;;;;5097919;28;20251;-64
2022/06/02 02:38:25;;;;;;;4.13;3.73;;;;;;;;;;5098034;28;20248;-64
2022/06/02 02:40:56;;;;;;;6.23;3.17;;;;;;;;;;5098072;28;20213;-71
2022/06/02 02:43:26;;;;;;;4.43;3.77;;;;;;;;;;5098152;28;20245;-71
2022/06/02 02:45:58;;;;;;;4.80;3.53;;;;;;;;;;5097700;28;20615;-71
2022/06/02 02:48:32;;;;;;;4.13;3.73;;;;;;;;;;5097872;28;20233;-71
2022/06/02 02:51:05;;;;;;;4.17;3.60;;;;;;;;;;5098148;28;20209;-71
2022/06/02 02:53:35;;;;;;;4.33;3.40;;;;;;;;;;5097655;28;20241;-72
2022/06/02 02:56:05;;;;;;;4.37;3.53;;;;;;;;;;5097601;28;20261;-72
2022/06/02 02:58:39;;;;;;;4.03;3.27;;;;;;;;;;5097669;28;20259;-71
2022/06/02 03:01:09;;;;;;;4.77;3.60;;;;;;;;;;5097820;28;20232;-72
2022/06/02 03:03:40;;;;;;;4.47;3.40;;;;;;;;;;5097562;28;20687;-71
2022/06/02 03:06:14;;;;;;;4.37;3.10;;;;;;;;;;5097824;28;20221;-71
2022/06/02 03:08:45;;;;;;;3.10;2.80;;;;;;;;;;5097392;28;20749;-72
2022/06/02 03:11:23;;;;;;;4.67;2.80;;;;;;;;;;5097300;28;20232;-72
2022/06/02 03:13:56;;;;;;;4.07;2.87;;;;;;;;;;5097600;28;20205;-72
2022/06/02 03:16:25;;;;;;;4.30;2.90;;;;;;;;;;5097587;28;20221;-72
2022/06/02 03:19:02;;;;;;;4.10;3.20;;;;;;;;;;5097614;28;20209;-72
2022/06/02 03:21:33;;;;;;;5.77;2.67;;;;;;;;;;5097515;28;20239;-72
2022/06/02 03:24:13;;;;;;;3.60;2.77;;;;;;;;;;5097935;28;20209;-72
2022/06/02 03:26:46;;;;;;;5.43;2.70;;;;;;;;;;5103777;28;20261;-72
2022/06/02 03:29:20;;;;;;;3.47;3.07;;;;;;;;;;5117629;28;20630;-72
2022/06/02 03:31:53;;;;;;;3.37;3.07;;;;;;;;;;5117953;28;20205;-72
2022/06/02 03:34:25;;;;;;;3.40;3.07;;;;;;;;;;5117503;28;20290;-72
2022/06/02 03:37:06;;;;;;;3.87;3.07;;;;;;;;;;5117885;28;20260;-72
2022/06/02 03:39:38;;;;;;;3.50;3.20;;;;;;;;;;5119785;28;20205;-72
2022/06/02 03:42:11;;;;;;;3.93;3.53;;;;;;;;;;5121519;28;20556;-72
2022/06/02 03:44:45;;;;;;;3.87;3.43;;;;;;;;;;5121694;28;20206;-72
2022/06/02 03:47:21;;;;;;;4.77;3.53;;;;;;;;;;5119274;28;20246;-72
2022/06/02 03:50:08;;;;;;;3.90;3.33;;;;;;;;;;5091021;28;20264;-72
2022/06/02 03:52:47;;;;;;;4.37;3.37;;;;;;;;;;5100914;28;20676;-72
2022/06/02 03:55:25;;;;;;;3.90;3.40;;;;;;;;;;5100195;28;20257;-71
2022/06/02 03:58:01;;;;;;;4.00;3.50;;;;;;;;;;5102128;28;20236;-72
2022/06/02 04:00:32;;;;;;;5.40;3.10;;;;;;;;;;5102630;28;20212;-72
2022/06/02 04:03:02;;;;;;;4.27;3.50;;;;;;;;;;5100072;28;20217;-71
2022/06/02 04:05:45;;;;;;;3.40;3.07;;;;;;;;;;5100822;28;20746;-71
2022/06/02 04:08:26;;;;;;;3.43;2.87;;;;;;;;;;5100387;28;20251;-72
2022/06/02 04:10:56;;;;;;;4.30;3.53;;;;;;;;;;5099051;28;20201;-72
2022/06/02 04:13:39;;;;;;;4.97;3.00;;;;;;;;;;5100191;28;20229;-72
2022/06/02 04:16:21;;;;;;;4.33;3.33;;;;;;;;;;5098620;28;20225;-71
2022/06/02 04:18:55;;;;;;;5.33;3.20;;;;;;;;;;5097705;28;20197;-66
2022/06/02 04:21:34;;;;;;;4.37;3.50;;;;;;;;;;5099304;28;20237;-65
2022/06/02 04:24:11;;;;;;;3.13;2.83;;;;;;;;;;5091378;28;20217;-65
2022/06/02 04:27:01;;;;;;;5.23;3.27;;;;;;;;;;5100358;28;20269;-65
2022/06/02 04:29:48;;;;;;;3.57;3.13;;;;;;;;;;5096227;28;20221;-65
2022/06/02 04:32:21;;;;;;;4.53;3.40;;;;;;;;;;5100645;28;20236;-66
2022/06/02 04:34:55;;;;;;;4.87;3.43;;;;;;;;;;5101616;28;20259;-66
2022/06/02 04:37:28;;;;;;;5.90;4.00;;;;;;;;;;5099607;28;20229;-66
2022/06/02 04:40:01;;;;;;;4.03;3.40;;;;;;;;;;5098938;28;20204;-66
2022/06/02 04:42:31;;;;;;;5.67;3.67;;;;;;;;;;5108581;28;20233;-66
2022/06/02 04:45:05;;;;;;;3.63;2.87;;;;;;;;;;5100256;28;20224;-66
2022/06/02 04:47:37;;;;;;;4.47;3.27;;;;;;;;;;5100855;28;20564;-66
2022/06/02 04:50:09;;;;;;;5.53;3.63;;;;;;;;;;5099250;28;20194;-68
2022/06/02 04:52:42;;;;;;;6.20;3.93;;;;;;;;;;5099530;28;20198;-66
2022/06/02 04:55:14;;;;;;;5.97;3.50;;;;;;;;;;5099606;28;20255;-67
2022/06/02 04:57:46;;;;;;;5.30;3.30;;;;;;;;;;5099555;28;20225;-65
2022/06/02 05:00:18;;;;;;;6.37;3.87;;;;;;;;;;5097844;28;20198;-66
2022/06/02 05:02:52;;;;;;;3.60;3.30;;;;;;;;;;5100245;28;20626;-66
2022/06/02 05:05:24;;;;;;;3.93;3.50;;;;;;;;;;5097830;28;20205;-65
2022/06/02 05:08:01;;;;;;;6.00;3.90;;;;;;;;;;5099541;28;20229;-67
2022/06/02 05:10:34;;;;;;;8.77;4.40;;;;;;;;;;5099534;28;20205;-67
2022/06/02 05:13:07;;;;;;;7.07;4.43;;;;;;;;;;5099613;28;20201;-66
2022/06/02 05:15:44;;;;;;;8.10;5.07;;;;;;;;;;5098910;28;20723;-66
2022/06/02 05:18:22;;;;;;;9.50;5.63;;;;;;;;;;5096530;28;20681;-67
2022/06/02 05:21:04;;;;;;;8.43;6.27;;;;;;;;;;5099707;28;20235;-66
2022/06/02 05:23:50;;;;;;;7.93;5.47;;;;;;;;;;5099415;28;20267;-65
2022/06/02 05:26:33;;;;;;;6.87;5.90;;;;;;;;;;5089132;28;20253;-65
2022/06/02 05:29:09;;;;;;;7.77;5.70;;;;;;;;;;5096872;28;20709;-65
2022/06/02 05:31:54;;;;;;;11.37;6.03;;;;;;;;;;5099608;28;20205;-65
2022/06/02 05:34:42;;;;;;;9.87;6.67;;;;;;;;;;5098805;28;20668;-67
2022/06/02 05:37:14;;;;;;;6.20;4.97;;;;;;;;;;5097884;28;20257;-67
2022/06/02 05:39:51;;;;;;;10.53;6.40;;;;;;;;;;5098775;28;20237;-67
2022/06/02 05:42:25;;;;;;;7.73;5.53;;;;;;;;;;5098689;28;20676;-67
2022/06/02 05:45:11;;;;;;;6.70;5.60;;;;;;;;;;5096819;28;20210;-65
2022/06/02 05:47:47;;;;;;;8.90;5.00;;;;;;;;;;5099121;28;20240;-65
2022/06/02 05:50:20;;;;;;;6.93;6.23;;;;;;;;;;5092466;28;20197;-66
2022/06/02 05:52:55;;;;;;;8.00;4.93;;;;;;;;;;5095547;28;20256;-66
2022/06/02 05:55:31;;;;;;;7.73;5.10;;;;;;;;;;5095501;28;20255;-66
2022/06/02 05:58:04;;;;;;;6.83;4.67;;;;;;;;;;5091268;28;20197;-65
2022/06/02 06:00:38;;;;;;;5.90;5.40;;;;;;;;;;5097377;28;20723;-66
2022/06/02 06:03:19;;;;;;;10.50;4.80;;;;;;;;;;5095451;28;20280;-66
2022/06/02 06:05:51;;;;;;;4.80;4.33;;;;;;;;;;5096165;28;20217;-66
2022/06/02 06:08:26;;;;;;;25.07;19.23;;;;;;;;;;5098373;28;20201;-66
2022/06/02 06:11:06;;;;;;;10.93;6.63;;;;;;;;;;5099474;28;20227;-68
2022/06/02 06:13:42;;;;;;;5.73;4.67;;;;;;;;;;5084947;28;20255;-67
2022/06/02 06:16:14;;;;;;;7.63;6.53;;;;;;;;;;5095174;28;20657;-67
2022/06/02 06:18:58;;;;;;;6.20;5.40;;;;;;;;;;5097880;28;20656;-68
2022/06/02 06:21:34;;;;;;;13.47;9.07;;;;;;;;;;5097797;28;20654;-72
2022/06/02 06:24:27;;;;;;;6.80;5.47;;;;;;;;;;5097895;28;20204;-73
2022/06/02 06:27:00;;;;;;;5.13;4.20;;;;;;;;;;5097986;28;20217;-72
2022/06/02 06:29:35;;;;;;;5.70;4.03;;;;;;;;;;5097906;28;20232;-74
2022/06/02 06:32:13;;;;;;;5.07;4.30;;;;;;;;;;5097541;28;20274;-73
2022/06/02 06:34:45;;;;;;;8.97;4.80;;;;;;;;;;5097562;28;20208;-73
2022/06/02 06:37:21;;;;;;;6.87;4.23;;;;;;;;;;5097658;28;20264;-72
2022/06/02 06:39:57;;;;;;;5.60;4.33;;;;;;;;;;5097598;28;20250;-73
2022/06/02 06:42:34;;;;;;;5.27;4.50;;;;;;;;;;5098637;28;20194;-73
2022/06/02 06:45:06;;;;;;;5.90;4.07;;;;;;;;;;5095467;28;20201;-74
2022/06/02 06:47:38;;;;;;;5.70;4.00;;;;;;;;;;5095321;28;20240;-74
2022/06/02 06:50:20;;;;;;;5.60;4.00;;;;;;;;;;5097927;28;20288;-73
2022/06/02 06:53:05;;;;;;;5.03;3.70;;;;;;;;;;5098251;28;20221;-73
2022/06/02 06:55:41;;;;;;;5.37;3.77;;;;;;;;;;5088041;28;20220;-71
2022/06/02 06:58:21;;;;;;;4.63;4.23;;;;;;;;;;5097481;28;20193;-71
2022/06/02 07:00:54;;;;;;;6.17;4.60;;;;;;;;;;5097414;28;20225;-69
2022/06/02 07:03:36;;;;;;;107.30;70.70;;;;;;;;;;5097198;28;20227;-66
2022/06/02 07:06:08;;;;;;;18.73;15.17;;;;;;;;;;5098067;28;20649;-64
2022/06/02 07:08:37;;;;;;;6.23;4.63;;;;;;;;;;5098790;28;20204;-64
2022/06/02 07:11:08;;;;;;;4.53;3.67;;;;;;;;;;5096612;28;20239;-65
2022/06/02 07:13:37;;;;;;;5.00;4.07;;;;;;;;;;5099938;28;20208;-66
2022/06/02 07:16:11;;;;;;;8.10;3.47;;;;;;;;;;5103351;28;20278;-66
2022/06/02 07:18:44;;;;;;;4.27;3.30;;;;;;;;;;5104146;28;20285;-68
2022/06/02 07:21:29;;;;;;;5.23;3.33;;;;;;;;;;5100941;28;20237;-66
2022/06/02 07:24:05;;;;;;;4.13;3.57;;;;;;;;;;5099822;28;20206;-65
2022/06/02 07:26:40;;;;;;;5.27;3.37;;;;;;;;;;5100496;28;20622;-67
2022/06/02 07:29:23;;;;;;;9.33;3.30;;;;;;;;;;5101199;28;20231;-66
2022/06/02 07:32:02;;;;;;;8.77;3.80;;;;;;;;;;5100996;28;20218;-66
2022/06/02 07:34:41;;;;;;;6.23;3.03;;;;;;;;;;5101482;28;20232;-66
2022/06/02 07:37:25;;;;;;;5.97;3.60;;;;;;;;;;5101100;28;20228;-65
2022/06/02 07:40:07;;;;;;;3.70;3.40;;;;;;;;;;5101027;28;20256;-65
2022/06/02 07:42:53;;;;;;;9.33;3.93;;;;;;;;;;5101131;28;20210;-65
2022/06/02 07:45:31;;;;;;;7.40;4.20;;;;;;;;;;5086094;28;20265;-65
2022/06/02 07:48:09;;;;;;;5.60;3.60;;;;;;;;;;5095983;28;20268;-65
2022/06/02 07:50:43;;;;;;;6.60;3.53;;;;;;;;;;5101094;28;20213;-65
2022/06/02 07:53:13;;;;;;;8.03;4.53;;;;;;;;;;5100703;28;20215;-64
2022/06/02 07:55:45;;;;;;;8.90;4.50;;;;;;;;;;5100309;28;20298;-67
2022/06/02 07:58:21;;;;;;;5.30;3.47;;;;;;;;;;5101800;28;20220;-66
2022/06/02 08:00:53;;;;;;;8.00;3.33;;;;;;;;;;5099721;28;20200;-70
2022/06/02 08:03:31;;;;;;;7.03;3.90;;;;;;;;;;5102021;28;20206;-69
2022/06/02 08:06:04;;;;;;;4.63;3.80;;;;;;;;;;5099647;28;20227;-70
2022/06/02 08:08:56;;;;;;;5.90;4.00;;;;;;;;;;5097537;28;20198;-72
2022/06/02 08:11:32;;;;;;;5.30;3.20;;;;;;;;;;5101190;28;20722;-70
2022/06/02 08:14:06;;;;;;;5.97;3.73;;;;;;;;;;5098763;28;20234;-72
2022/06/02 08:16:45;;;;;;;3.47;3.17;;;;;;;;;;5097787;28;20222;-72
2022/06/02 08:19:14;;;;;;;8.73;3.50;;;;;;;;;;5097736;28;20229;-71
2022/06/02 08:21:45;;;;;;;6.87;3.90;;;;;;;;;;5101210;28;20201;-70
2022/06/02 08:24:28;;;;;;;5.30;3.20;;;;;;;;;;5096203;28;20838;-69
2022/06/02 08:27:01;;;;;;;8.47;3.70;;;;;;;;;;5107174;28;20635;-70
2022/06/02 08:29:38;;;;;;;5.03;3.50;;;;;;;;;;5098849;28;20251;-71
2022/06/02 08:32:17;;;;;;;4.37;3.03;;;;;;;;;;5099830;28;20258;-71
2022/06/02 08:34:51;;;;;;;6.03;3.00;;;;;;;;;;5099908;28;20209;-71
2022/06/02 08:37:27;;;;;;;8.30;3.83;;;;;;;;;;5099670;28;20593;-74
2022/06/02 08:40:29;;;;;;;4.20;3.30;;;;;;;;;;5099582;28;20292;-71
2022/06/02 08:43:09;;;;;;;8.63;3.77;;;;;;;;;;5099682;28;20202;-71
2022/06/02 08:45:43;;;;;;;6.37;3.67;;;;;;;;;;5099842;28;20236;-73
2022/06/02 08:48:32;;;;;;;8.43;4.07;;;;;;;;;;5100013;28;20237;-71
2022/06/02 08:51:15;;;;;;;9.07;4.37;;;;;;;;;;5094793;28;20722;-72
2022/06/02 08:54:16;;;;;;;14.17;5.03;;;;;;;;;;5099712;28;20268;-72
2022/06/02 08:57:05;;;;;;;6.93;4.60;;;;;;;;;;5099168;28;20754;-72
2022/06/02 08:59:52;;;;;;;8.57;4.43;;;;;;;;;;5099565;28;20328;-69
2022/06/02 09:02:33;;;;;;;19.27;10.20;;;;;;;;;;5101137;28;20205;-70
2022/06/02 09:05:14;;;;;;;6.03;4.37;;;;;;;;;;5095649;28;20229;-71
2022/06/02 09:07:57;;;;;;;11.60;4.87;;;;;;;;;;5098350;28;20197;-70
2022/06/02 09:10:29;;;;;;;11.37;4.60;;;;;;;;;;5103388;28;20234;-70
2022/06/02 09:13:21;;;;;;;6.87;3.63;;;;;;;;;;5099178;28;20209;-70
2022/06/02 09:16:05;;;;;;;6.80;3.70;;;;;;;;;;5092444;28;20221;-69
2022/06/02 09:18:57;;;;;;;9.20;4.40;;;;;;;;;;5085802;28;20290;-69
2022/06/02 09:21:42;;;;;;;8.47;4.43;;;;;;;;;;5087343;28;20215;-70
2022/06/02 09:24:19;;;;;;;5.03;3.80;;;;;;;;;;5098699;28;20667;-71
2022/06/02 09:26:57;;;;;;;6.70;3.97;;;;;;;;;;5099020;28;20222;-72
2022/06/02 09:29:29;;;;;;;5.30;3.73;;;;;;;;;;5098689;28;20203;-72
2022/06/02 09:32:11;;;;;;;5.10;4.00;;;;;;;;;;5099864;28;20205;-72
2022/06/02 09:34:44;;;;;;;6.63;3.60;;;;;;;;;;5095300;28;20205;-72
2022/06/02 09:37:32;;;;;;;6.00;4.03;;;;;;;;;;5098602;28;20225;-72
2022/06/02 09:40:21;;;;;;;4.53;3.87;;;;;;;;;;5072063;28;20689;-71
2022/06/02 09:43:04;;;;;;;7.93;4.53;;;;;;;;;;5094458;28;20270;-70
2022/06/02 09:45:44;;;;;;;4.17;3.70;;;;;;;;;;5086137;28;20670;-70
2022/06/02 09:48:49;;;;;;;7.17;3.73;;;;;;;;;;5098218;28;20260;-70
2022/06/02 09:51:23;;;;;;;7.83;3.70;;;;;;;;;;5098193;28;20237;-71
2022/06/02 09:54:03;;;;;;;7.93;4.17;;;;;;;;;;5098307;28;20695;-71
2022/06/02 09:56:52;;;;;;;6.93;3.57;;;;;;;;;;5098053;28;20251;-71
2022/06/02 09:59:25;;;;;;;11.43;3.73;;;;;;;;;;5096815;28;20266;-71
2022/06/02 10:02:00;;;;;;;6.07;4.07;;;;;;;;;;5099595;28;20227;-70
2022/06/02 10:04:42;;;;;;;4.07;3.77;;;;;;;;;;5094476;28;20579;-70
2022/06/02 10:07:16;;;;;;;10.30;4.27;;;;;;;;;;5095444;28;20246;-69
2022/06/02 10:09:55;;;;;;;6.77;3.93;;;;;;;;;;5101381;28;20201;-70
2022/06/02 10:15:21;;;;;;;9.00;4.00;;;;;;;;;;5102230;28;20256;-70
2022/06/02 10:17:59;;;;;;;7.00;3.67;;;;;;;;;;5097229;28;20216;-70
2022/06/02 10:21:00;;;;;;;7.90;3.73;;;;;;;;;;5092194;28;20219;-70
2022/06/02 10:23:36;;;;;;;7.70;3.80;;;;;;;;;;5035239;28;20208;-70
2022/06/02 10:26:10;;;;;;;3.70;3.30;;;;;;;;;;5035835;28;20227;-73
2022/06/02 10:29:08;;;;;;;5.13;3.70;;;;;;;;;;5070783;28;20262;-72
2022/06/02 10:31:49;;;;;;;5.00;3.50;;;;;;;;;;5035297;28;20651;-72
2022/06/02 10:34:32;;;;;;;7.70;4.20;;;;;;;;;;5109992;28;20200;-72
2022/06/02 10:37:09;;;;;;;7.43;4.20;;;;;;;;;;5118274;28;20629;-72
2022/06/02 10:39:44;;;;;;;5.80;3.90;;;;;;;;;;5117424;28;20557;-71
2022/06/02 10:42:23;;;;;;;6.33;5.17;;;;;;;;;;5118157;28;20209;-72
2022/06/02 10:45:09;;;;;;;5.23;3.90;;;;;;;;;;5118422;28;20204;-72
2022/06/02 10:48:07;;;;;;;6.50;3.97;;;;;;;;;;5117288;28;20262;-71
2022/06/02 10:50:43;;;;;;;5.00;3.50;;;;;;;;;;5118323;28;20212;-70
2022/06/02 10:53:34;;;;;;;6.70;4.10;;;;;;;;;;5118133;28;20226;-72
2022/06/02 10:56:13;;;;;;;5.07;4.57;;;;;;;;;;5090794;28;20221;-72
2022/06/02 10:58:58;;;;;;;5.67;3.80;;;;;;;;;;5097508;28;20271;-71
2022/06/02 11:01:42;;;;;;;7.93;4.90;;;;;;;;;;5097249;28;20201;-71
2022/06/02 11:04:40;;;;;;;7.43;4.27;;;;;;;;;;5097897;28;20205;-70
2022/06/02 11:07:26;;;;;;;7.57;4.30;;;;;;;;;;5027750;28;20236;-71
2022/06/02 11:10:15;;;;;;;5.20;3.57;;;;;;;;;;5079214;28;20224;-70
2022/06/02 11:12:58;;;;;;;7.10;4.27;;;;;;;;;;5092501;28;20212;-73
2022/06/02 11:15:51;;;;;;;4.77;3.47;;;;;;;;;;5095310;28;20225;-70
2022/06/02 11:18:35;;;;;;;5.07;3.50;;;;;;;;;;5078390;28;20234;-70
2022/06/02 11:21:20;;;;;;;5.20;3.93;;;;;;;;;;5097194;28;20205;-72
2022/06/02 11:24:04;;;;;;;4.30;3.43;;;;;;;;;;5096847;28;20288;-68
2022/06/02 11:26:56;;;;;;;7.23;3.57;;;;;;;;;;5096793;28;20686;-70
2022/06/02 11:29:39;;;;;;;4.93;3.60;;;;;;;;;;5099262;28;20201;-71
2022/06/02 11:32:22;;;;;;;6.03;3.90;;;;;;;;;;5104875;28;20196;-70
2022/06/02 11:35:05;;;;;;;6.03;3.80;;;;;;;;;;5105649;28;20198;-72
2022/06/02 11:38:00;;;;;;;5.23;3.10;;;;;;;;;;5106149;28;20672;-72
2022/06/02 11:41:12;;;;;;;6.37;3.53;;;;;;;;;;5073236;28;20268;-72
2022/06/02 11:43:48;;;;;;;7.93;3.37;;;;;;;;;;5104789;28;20718;-72
2022/06/02 11:46:34;;;;;;;4.33;3.67;;;;;;;;;;5105089;28;20303;-71
2022/06/02 11:49:17;;;;;;;6.73;4.07;;;;;;;;;;5108040;28;20218;-71
2022/06/02 11:52:06;;;;;;;9.17;3.90;;;;;;;;;;5114508;28;20302;-70
2022/06/02 11:54:56;;;;;;;7.20;3.67;;;;;;;;;;5086283;28;20205;-69
2022/06/02 11:57:42;;;;;;;6.30;3.60;;;;;;;;;;5071646;28;20231;-69
2022/06/02 12:00:24;;;;;;;8.27;4.00;;;;;;;;;;5088359;28;20225;-69
2022/06/02 12:03:10;;;;;;;7.30;3.60;;;;;;;;;;5100781;28;20208;-70
2022/06/02 12:06:09;;;;;;;4.20;3.87;;;;;;;;;;5090872;28;20311;-70
2022/06/02 12:08:50;;;;;;;7.30;3.53;;;;;;;;;;5047708;28;20211;-70
2022/06/02 12:11:33;;;;;;;4.97;3.47;;;;;;;;;;5079631;28;20277;-70
2022/06/02 12:14:16;;;;;;;5.80;3.47;;;;;;;;;;5099604;28;20257;-70
2022/06/02 12:16:55;;;;;;;5.97;3.20;;;;;;;;;;5087973;28;20222;-69
2022/06/02 12:19:44;;;;;;;5.60;2.70;;;;;;;;;;5092670;28;20251;-69
2022/06/02 12:22:18;;;;;;;3.43;2.60;;;;;;;;;;5100441;28;20241;-69
2022/06/02 12:24:56;;;;;;;4.47;2.80;;;;;;;;;;5099779;28;20233;-69
2022/06/02 12:27:33;;;;;;;3.97;3.00;;;;;;;;;;5100309;28;20225;-71
2022/06/02 12:30:14;;;;;;;4.07;3.00;;;;;;;;;;5100233;28;20228;-71
2022/06/02 12:32:51;;;;;;;5.47;2.87;;;;;;;;;;5100178;28;20207;-69
2022/06/02 12:35:31;;;;;;;4.73;2.70;;;;;;;;;;5099997;28;20205;-70
2022/06/02 12:38:20;;;;;;;4.10;3.20;;;;;;;;;;5099839;28;20574;-70
2022/06/02 12:40:55;;;;;;;6.87;2.50;;;;;;;;;;5099775;28;20248;-69
2022/06/02 12:43:34;;;;;;;4.63;2.47;;;;;;;;;;5100058;28;20238;-71
2022/06/02 12:46:17;;;;;;;6.60;3.00;;;;;;;;;;5099987;28;20218;-69
2022/06/02 12:49:12;;;;;;;9.03;3.67;;;;;;;;;;5099796;28;20234;-71
2022/06/02 12:51:52;;;;;;;10.83;4.53;;;;;;;;;;5099891;28;20214;-71
2022/06/02 12:54:41;;;;;;;10.47;4.47;;;;;;;;;;5099223;28;20208;-71
2022/06/02 12:57:33;;;;;;;5.40;3.43;;;;;;;;;;5099832;28;20231;-71
2022/06/02 13:00:16;;;;;;;5.77;2.93;;;;;;;;;;5099680;28;20263;-72
2022/06/02 13:03:05;;;;;;;3.27;2.97;;;;;;;;;;5087170;28;20647;-71
2022/06/02 13:06:00;;;;;;;6.20;2.40;;;;;;;;;;5098693;28;20226;-71
2022/06/02 13:08:42;;;;;;;2.50;2.30;;;;;;;;;;5110553;28;20200;-71
2022/06/02 13:11:22;;;;;;;2.40;2.20;;;;;;;;;;5099102;28;20212;-69
2022/06/02 13:14:11;;;;;;;2.60;2.40;;;;;;;;;;5096970;28;20322;-67
2022/06/02 13:17:02;;;;;;;3.50;1.70;;;;;;;;;;5102084;28;20224;-71
2022/06/02 13:19:38;;;;;;;3.13;2.27;;;;;;;;;;5084131;28;20232;-72
2022/06/02 13:22:32;;;;;;;2.67;1.90;;;;;;;;;;5099417;28;20203;-71
2022/06/02 13:25:21;;;;;;;2.33;1.93;;;;;;;;;;5098645;28;20271;-72
2022/06/02 13:28:02;;;;;;;6.50;2.50;;;;;;;;;;5113343;28;20232;-71
2022/06/02 13:30:43;;;;;;;5.67;2.60;;;;;;;;;;5119781;28;20200;-71
2022/06/02 13:33:34;;;;;;;5.57;2.63;;;;;;;;;;5119765;28;20286;-70
2022/06/02 13:36:14;;;;;;;6.80;2.90;;;;;;;;;;5098707;28;20224;-71
2022/06/02 13:39:01;;;;;;;4.57;3.23;;;;;;;;;;5112665;28;20299;-71
2022/06/02 13:41:38;;;;;;;23.53;7.27;;;;;;;;;;5118538;28;20206;-71
2022/06/02 13:44:20;;;;;;;67.30;17.27;;;;;;;;;;5097228;28;20212;-71
2022/06/02 13:47:05;;;;;;;11.27;3.47;;;;;;;;;;5097482;28;20266;-70
2022/06/02 13:50:03;;;;;;;8.00;3.10;;;;;;;;;;5096072;28;20631;-70
2022/06/02 13:52:58;;;;;;;4.37;2.90;;;;;;;;;;5096549;28;20248;-70
2022/06/02 13:58:43;;;;;;;5.17;2.50;;;;;;;;;;5097662;28;20239;-71
2022/06/02 14:01:23;;;;;;;4.20;2.30;;;;;;;;;;5100347;28;20684;-69
2022/06/02 14:04:19;;;;;;;4.63;1.97;;;;;;;;;;5086452;28;20211;-70
2022/06/02 14:06:50;;;;;;;3.83;2.60;;;;;;;;;;5061166;28;20268;-71
2022/06/02 14:09:37;;;;;;;5.63;2.20;;;;;;;;;;5102664;28;20196;-72
2022/06/02 14:12:14;;;;;;;4.00;2.60;;;;;;;;;;5093764;28;20225;-72
2022/06/02 14:14:54;;;;;;;3.03;2.10;;;;;;;;;;5094320;28;20223;-71
2022/06/02 14:17:29;;;;;;;3.77;2.20;;;;;;;;;;5096733;28;20274;-72
2022/06/02 14:20:05;;;;;;;3.97;2.43;;;;;;;;;;5094264;28;20290;-71
2022/06/02 14:22:38;;;;;;;4.17;2.53;;;;;;;;;;5094119;28;20197;-71
2022/06/02 14:25:09;;;;;;;2.73;2.50;;;;;;;;;;5104538;28;20236;-71
2022/06/02 14:27:40;;;;;;;7.77;2.70;;;;;;;;;;5098874;28;20201;-71
2022/06/02 14:30:12;;;;;;;6.47;2.50;;;;;;;;;;5101889;28;20194;-71
2022/06/02 14:32:51;;;;;;;5.40;2.20;;;;;;;;;;5099524;28;20263;-71
2022/06/02 14:35:30;;;;;;;4.13;2.37;;;;;;;;;;5096567;28;20229;-71
2022/06/02 14:38:03;;;;;;;1.93;1.80;;;;;;;;;;5097577;28;20204;-72
2022/06/02 14:40:35;;;;;;;3.10;1.80;;;;;;;;;;5110915;28;20731;-71
2022/06/02 14:43:16;;;;;;;3.10;2.33;;;;;;;;;;5118422;28;20205;-72
2022/06/02 14:46:06;;;;;;;5.73;3.03;;;;;;;;;;5114545;28;20232;-71
2022/06/02 14:48:43;;;;;;;4.87;2.80;;;;;;;;;;5110596;28;20305;-71
2022/06/02 14:51:15;;;;;;;3.03;2.20;;;;;;;;;;5097306;28;20227;-71
2022/06/02 14:53:56;;;;;;;4.23;2.37;;;;;;;;;;5102169;28;20198;-72
2022/06/02 14:56:32;;;;;;;2.90;2.53;;;;;;;;;;5104405;28;20569;-72
2022/06/02 14:59:09;;;;;;;5.43;2.37;;;;;;;;;;5096762;28;20201;-72
2022/06/02 15:01:40;;;;;;;2.70;2.50;;;;;;;;;;5094963;28;20354;-71
2022/06/02 15:04:23;;;;;;;6.23;2.77;;;;;;;;;;5098588;28;20262;-71
2022/06/02 15:07:06;;;;;;;6.00;2.50;;;;;;;;;;5094663;28;20267;-71
2022/06/02 15:09:43;;;;;;;9.47;2.70;;;;;;;;;;5084921;28;20250;-71
2022/06/02 15:12:25;;;;;;;5.80;2.60;;;;;;;;;;5096871;28;20205;-71
2022/06/02 15:15:00;;;;;;;4.30;2.23;;;;;;;;;;5103966;28;20220;-71
2022/06/02 15:17:43;;;;;;;3.30;2.43;;;;;;;;;;5104841;28;20224;-71
2022/06/02 15:20:25;;;;;;;6.03;2.80;;;;;;;;;;5094061;28;20237;-72
2022/06/02 15:23:31;;;;;;;7.00;2.60;;;;;;;;;;5096726;28;20634;-71
2022/06/02 15:26:07;;;;;;;4.03;2.23;;;;;;;;;;5093945;28;20339;-71
2022/06/02 15:28:53;;;;;;;2.60;2.20;;;;;;;;;;5097557;28;20201;-71
2022/06/02 15:31:28;;;;;;;7.13;2.40;;;;;;;;;;5097668;28;20265;-71
2022/06/02 15:34:13;;;;;;;2.47;2.10;;;;;;;;;;5098660;28;20198;-71
2022/06/02 15:36:53;;;;;;;3.07;2.17;;;;;;;;;;5098769;28;20218;-71
2022/06/02 15:39:48;;;;;;;5.43;2.00;;;;;;;;;;5100859;28;20268;-72
2022/06/02 15:42:22;;;;;;;3.50;2.00;;;;;;;;;;5069366;28;20218;-70
2022/06/02 15:45:09;;;;;;;2.80;1.70;;;;;;;;;;5101065;28;20203;-70
2022/06/02 15:47:48;;;;;;;6.43;2.23;;;;;;;;;;5100968;28;20210;-70
2022/06/02 15:50:31;;;;;;;6.77;2.40;;;;;;;;;;5100847;28;20205;-71
2022/06/02 15:53:14;;;;;;;4.50;2.10;;;;;;;;;;5100451;28;20638;-71
2022/06/02 15:56:07;;;;;;;1.83;1.70;;;;;;;;;;5099647;28;20233;-72
2022/06/02 15:58:58;;;;;;;2.30;2.10;;;;;;;;;;5100677;28;20209;-71
2022/06/02 16:01:38;;;;;;;4.90;2.67;;;;;;;;;;5100668;28;20230;-71